Weed Airport Atmospheric Data: 07/12/2019 Summary  Detailed Graphs  Station List

  Temperature     Wind Precipitation Visibility
Timestamp Air Wet
Bulb
Dew-
point
24-hr
Max
24-hr
Min
Relative
Humidity
Atmospheric
Pressure
Avg
Speed
Avg
Dir
Spot
Speed
Spot
Dir
Max
Speed
Max
Dir
  Rate Situation Start End 1 hr 3 hr 6 hr 12 hr 24 hr   Situation
Date Time °F °F °F °F °F % in Hg mph ° mph ° mph ° Y/N in/hr text Date Time Date Time in in in in in mi text
07/12/2019 12:00 AM 72.32 59.72 51.26 90.32 55.58 47.0 Not Reported 0.00 SW 0.00 SW 2.24 W No 0.000 No Precipitation 05/28/2019 11:51 AM 05/28/2019 11:56 AM 0.000 0.000 0.000 0.000 0.000 Not Reported Not Reported
07/12/2019 12:15 AM 68.36 58.28 51.26 90.32 55.58 54.0 Not Reported 1.34 SE 3.13 E 1.34 S No 0.000 No Precipitation 05/28/2019 11:51 AM 05/28/2019 11:56 AM 0.000 0.000 0.000 0.000 0.000 Not Reported Not Reported
07/12/2019 12:30 AM 68.72 58.64 51.62 90.32 55.58 54.0 Not Reported 1.12 S 1.79 S 3.80 S No 0.000 No Precipitation 05/28/2019 11:51 AM 05/28/2019 11:56 AM 0.000 0.000 0.000 0.000 0.000 Not Reported Not Reported
07/12/2019 12:45 AM 68.00 58.46 51.98 90.32 55.58 56.0 Not Reported 4.47 S 4.47 S 4.03 S No 0.000 No Precipitation 05/28/2019 11:51 AM 05/28/2019 11:56 AM 0.000 0.000 0.000 0.000 0.000 Not Reported Not Reported
07/12/2019 01:00 AM 67.28 58.10 51.80 90.32 55.58 57.0 Not Reported 1.57 S 1.79 S 2.91 S No 0.000 No Precipitation 05/28/2019 11:51 AM 05/28/2019 11:56 AM 0.000 0.000 0.000 0.000 0.000 Not Reported Not Reported
07/12/2019 01:15 AM 65.12 57.02 51.08 90.32 55.58 60.0 Not Reported 1.79 SE 2.01 SE 1.57 S No 0.000 No Precipitation 05/28/2019 11:51 AM 05/28/2019 11:56 AM 0.000 0.000 0.000 0.000 0.000 Not Reported Not Reported
07/12/2019 01:30 AM 63.50 56.66 51.62 90.32 55.58 65.0 Not Reported 0.00 E 0.00 E 2.01 S No 0.000 No Precipitation 05/28/2019 11:51 AM 05/28/2019 11:56 AM 0.000 0.000 0.000 0.000 0.000 Not Reported Not Reported
07/12/2019 01:45 AM 63.14 56.48 51.62 90.32 55.58 66.0 Not Reported 2.68 S 2.46 SE 4.25 SE No 0.000 No Precipitation 05/28/2019 11:51 AM 05/28/2019 11:56 AM 0.000 0.000 0.000 0.000 0.000 Not Reported Not Reported
07/12/2019 02:00 AM 62.60 56.30 51.80 90.32 55.58 67.0 Not Reported 6.49 SE 6.26 SE 7.16 SE No 0.000 No Precipitation 05/28/2019 11:51 AM 05/28/2019 11:56 AM 0.000 0.000 0.000 0.000 0.000 Not Reported Not Reported
07/12/2019 02:15 AM 62.42 55.94 51.44 90.32 55.58 67.0 Not Reported 3.58 SE 2.01 SE 6.49 SE No 0.000 No Precipitation 05/28/2019 11:51 AM 05/28/2019 11:56 AM 0.000 0.000 0.000 0.000 0.000 Not Reported Not Reported
07/12/2019 02:30 AM 61.88 55.94 51.44 90.32 55.58 68.0 Not Reported 5.14 SE 5.59 SE 5.59 SE No 0.000 No Precipitation 05/28/2019 11:51 AM 05/28/2019 11:56 AM 0.000 0.000 0.000 0.000 0.000 Not Reported Not Reported
07/12/2019 02:45 AM 61.70 55.94 51.80 90.32 55.58 69.0 Not Reported 4.47 SE 3.80 SE 6.49 SE No 0.000 No Precipitation 05/28/2019 11:51 AM 05/28/2019 11:56 AM 0.000 0.000 0.000 0.000 0.000 Not Reported Not Reported
07/12/2019 03:00 AM 62.06 55.76 51.08 90.32 55.58 67.0 Not Reported 3.80 SE 4.25 SE 4.25 SE No 0.000 No Precipitation 05/28/2019 11:51 AM 05/28/2019 11:56 AM 0.000 0.000 0.000 0.000 0.000 Not Reported Not Reported
07/12/2019 03:15 AM 60.98 55.40 51.26 90.32 55.58 70.0 Not Reported 3.80 SE 5.14 SE 5.37 SE No 0.000 No Precipitation 05/28/2019 11:51 AM 05/28/2019 11:56 AM 0.000 0.000 0.000 0.000 0.000 Not Reported Not Reported
07/12/2019 03:30 AM 60.80 55.40 51.26 90.32 55.58 70.0 Not Reported 4.25 SE 3.13 SE 5.82 SE No 0.000 No Precipitation 05/28/2019 11:51 AM 05/28/2019 11:56 AM 0.000 0.000 0.000 0.000 0.000 Not Reported Not Reported
07/12/2019 03:45 AM 61.70 55.58 51.26 90.32 55.58 68.0 Not Reported 4.47 SE 3.36 SE 5.37 SE No 0.000 No Precipitation 05/28/2019 11:51 AM 05/28/2019 11:56 AM 0.000 0.000 0.000 0.000 0.000 Not Reported Not Reported
07/12/2019 04:00 AM 61.52 55.58 51.08 90.32 55.58 68.0 Not Reported 3.58 S 4.03 S 6.04 SE No 0.000 No Precipitation 05/28/2019 11:51 AM 05/28/2019 11:56 AM 0.000 0.000 0.000 0.000 0.000 Not Reported Not Reported
07/12/2019 04:15 AM 59.54 54.50 50.72 90.32 55.58 72.0 Not Reported 4.92 SE 4.92 SE 4.47 S No 0.000 No Precipitation 05/28/2019 11:51 AM 05/28/2019 11:56 AM 0.000 0.000 0.000 0.000 0.000 Not Reported Not Reported
07/12/2019 04:30 AM 60.26 54.86 50.90 90.32 55.58 71.0 Not Reported 5.59 SE 5.37 SE 5.59 SE No 0.000 No Precipitation 05/28/2019 11:51 AM 05/28/2019 11:56 AM 0.000 0.000 0.000 0.000 0.000 Not Reported Not Reported
07/12/2019 04:45 AM 59.90 54.86 50.90 90.32 55.58 72.0 Not Reported 6.04 SE 5.59 SE 7.38 SE No 0.000 No Precipitation 05/28/2019 11:51 AM 05/28/2019 11:56 AM 0.000 0.000 0.000 0.000 0.000 Not Reported Not Reported
07/12/2019 05:00 AM 58.82 53.96 50.36 90.32 55.58 73.0 Not Reported 5.14 SE 5.14 SE 7.83 SE No 0.000 No Precipitation 05/28/2019 11:51 AM 05/28/2019 11:56 AM 0.000 0.000 0.000 0.000 0.000 Not Reported Not Reported
07/12/2019 05:15 AM 59.18 54.32 50.72 90.32 55.58 73.0 Not Reported 3.80 SE 6.04 SE 6.49 SE No 0.000 No Precipitation 05/28/2019 11:51 AM 05/28/2019 11:56 AM 0.000 0.000 0.000 0.000 0.000 Not Reported Not Reported
07/12/2019 05:30 AM 59.54 54.68 51.08 90.32 55.58 73.0 Not Reported 8.28 SE 8.50 SE 8.95 S No 0.000 No Precipitation 05/28/2019 11:51 AM 05/28/2019 11:56 AM 0.000 0.000 0.000 0.000 0.000 Not Reported Not Reported
07/12/2019 05:45 AM 59.00 54.32 50.90 90.32 55.58 74.0 Not Reported 8.50 SE 6.93 SE 9.40 SE No 0.000 No Precipitation 05/28/2019 11:51 AM 05/28/2019 11:56 AM 0.000 0.000 0.000 0.000 0.000 Not Reported Not Reported
07/12/2019 06:00 AM 58.46 53.96 50.54 90.32 55.58 74.0 Not Reported 7.61 SE 7.16 SE 7.83 SE No 0.000 No Precipitation 05/28/2019 11:51 AM 05/28/2019 11:56 AM 0.000 0.000 0.000 0.000 0.000 Not Reported Not Reported
07/12/2019 06:15 AM 57.92 53.60 50.54 90.32 55.58 76.0 Not Reported 7.38 SE 7.16 SE 8.50 SE No 0.000 No Precipitation 05/28/2019 11:51 AM 05/28/2019 11:56 AM 0.000 0.000 0.000 0.000 0.000 Not Reported Not Reported
07/12/2019 06:30 AM 58.82 54.32 50.72 90.32 55.58 74.0 Not Reported 7.16 SE 7.16 SE 7.38 SE No 0.000 No Precipitation 05/28/2019 11:51 AM 05/28/2019 11:56 AM 0.000 0.000 0.000 0.000 0.000 Not Reported Not Reported
07/12/2019 06:45 AM 57.56 53.06 49.64 90.32 55.58 75.0 Not Reported 4.25 SE 5.14 SE 7.61 SE No 0.000 No Precipitation 05/28/2019 11:51 AM 05/28/2019 11:56 AM 0.000 0.000 0.000 0.000 0.000 Not Reported Not Reported
07/12/2019 07:00 AM 58.10 53.96 50.90 90.32 55.94 77.0 Not Reported 7.83 SE 7.83 SE 8.05 SE No 0.000 No Precipitation 05/28/2019 11:51 AM 05/28/2019 11:56 AM 0.000 0.000 0.000 0.000 0.000 Not Reported Not Reported
07/12/2019 07:15 AM 60.26 55.04 51.26 90.32 56.12 72.0 Not Reported 5.82 SE 7.38 SE 9.17 SE No 0.000 No Precipitation 05/28/2019 11:51 AM 05/28/2019 11:56 AM 0.000 0.000 0.000 0.000 0.000 Not Reported Not Reported
07/12/2019 07:30 AM 60.44 55.22 51.26 90.32 56.66 71.0 Not Reported 5.59 SE 6.04 SE 7.38 SE No 0.000 No Precipitation 05/28/2019 11:51 AM 05/28/2019 11:56 AM 0.000 0.000 0.000 0.000 0.000 Not Reported Not Reported
07/12/2019 07:45 AM 60.08 55.22 51.62 90.32 56.66 73.0 Not Reported 4.47 S 4.70 S 6.93 SE No 0.000 No Precipitation 05/28/2019 11:51 AM 05/28/2019 11:56 AM 0.000 0.000 0.000 0.000 0.000 Not Reported Not Reported
07/12/2019 08:00 AM 62.96 56.66 52.16 90.32 56.66 67.0 Not Reported 0.89 S 0.22 S 3.36 SE No 0.000 No Precipitation 05/28/2019 11:51 AM 05/28/2019 11:56 AM 0.000 0.000 0.000 0.000 0.000 Not Reported Not Reported
07/12/2019 08:15 AM 64.76 57.38 51.98 90.32 56.66 63.0 Not Reported 0.45 SW 0.00 SW 0.89 E No 0.000 No Precipitation 05/28/2019 11:51 AM 05/28/2019 11:56 AM 0.000 0.000 0.000 0.000 0.000 Not Reported Not Reported
07/12/2019 08:30 AM 66.02 58.10 52.52 90.32 56.66 61.0 Not Reported 0.45 S 0.00 S 1.12 SW No 0.000 No Precipitation 05/28/2019 11:51 AM 05/28/2019 11:56 AM 0.000 0.000 0.000 0.000 0.000 Not Reported Not Reported
07/12/2019 08:45 AM 66.38 58.10 52.16 90.32 56.66 60.0 Not Reported 0.22 SW 1.34 SW 1.79 SW No 0.000 No Precipitation 05/28/2019 11:51 AM 05/28/2019 11:56 AM 0.000 0.000 0.000 0.000 0.000 Not Reported Not Reported
07/12/2019 09:00 AM 67.10 58.46 52.52 90.32 56.66 59.0 Not Reported 0.22 S 0.00 SW 1.79 SW No 0.000 No Precipitation 05/28/2019 11:51 AM 05/28/2019 11:56 AM 0.000 0.000 0.000 0.000 0.000 Not Reported Not Reported
07/12/2019 09:15 AM 68.72 59.00 52.16 90.32 56.66 55.0 Not Reported 1.34 SE 0.00 SE 2.24 S No 0.000 No Precipitation 05/28/2019 11:51 AM 05/28/2019 11:56 AM 0.000 0.000 0.000 0.000 0.000 Not Reported Not Reported
07/12/2019 09:30 AM 70.52 59.72 52.70 90.32 56.66 53.0 Not Reported 1.34 NE 1.57 N 2.01 NE No 0.000 No Precipitation 05/28/2019 11:51 AM 05/28/2019 11:56 AM 0.000 0.000 0.000 0.000 0.000 Not Reported Not Reported
07/12/2019 09:45 AM 71.24 59.90 52.34 90.32 56.66 51.0 Not Reported 0.22 E 2.91 NE 1.79 NE No 0.000 No Precipitation 05/28/2019 11:51 AM 05/28/2019 11:56 AM 0.000 0.000 0.000 0.000 0.000 Not Reported Not Reported
07/12/2019 10:00 AM 71.06 60.08 52.52 90.32 56.66 51.0 Not Reported 0.22 NE 0.00 E 3.13 N No 0.000 No Precipitation 05/28/2019 11:51 AM 05/28/2019 11:56 AM 0.000 0.000 0.000 0.000 0.000 Not Reported Not Reported
07/12/2019 10:15 AM 72.50 60.80 52.88 90.32 56.66 50.0 Not Reported 0.67 S 1.57 W 5.14 NW No 0.000 No Precipitation 05/28/2019 11:51 AM 05/28/2019 11:56 AM 0.000 0.000 0.000 0.000 0.000 Not Reported Not Reported
07/12/2019 10:30 AM 72.32 60.44 52.52 90.32 56.66 49.0 Not Reported 3.13 NW 3.80 N 4.47 NW No 0.000 No Precipitation 05/28/2019 11:51 AM 05/28/2019 11:56 AM 0.000 0.000 0.000 0.000 0.000 Not Reported Not Reported
07/12/2019 10:45 AM 72.86 60.80 52.70 90.32 56.66 49.0 Not Reported 2.68 N 0.89 NW 4.70 NW No 0.000 No Precipitation 05/28/2019 11:51 AM 05/28/2019 11:56 AM 0.000 0.000 0.000 0.000 0.000 Not Reported Not Reported
07/12/2019 11:00 AM 73.94 61.16 52.70 90.32 56.66 47.0 Not Reported 2.24 N 2.01 E 4.47 NE No 0.000 No Precipitation 05/28/2019 11:51 AM 05/28/2019 11:56 AM 0.000 0.000 0.000 0.000 0.000 Not Reported Not Reported
07/12/2019 11:15 AM 75.38 61.70 52.88 90.32 56.66 45.0 Not Reported 2.01 NE 3.58 NE 5.37 N No 0.000 No Precipitation 05/28/2019 11:51 AM 05/28/2019 11:56 AM 0.000 0.000 0.000 0.000 0.000 Not Reported Not Reported
07/12/2019 11:30 AM 75.92 62.24 53.24 90.32 56.66 45.0 Not Reported 3.36 W 2.68 W 5.59 W No 0.000 No Precipitation 05/28/2019 11:51 AM 05/28/2019 11:56 AM 0.000 0.000 0.000 0.000 0.000 Not Reported Not Reported
07/12/2019 11:45 AM 75.74 61.88 52.88 90.32 56.66 44.0 Not Reported 4.25 N 4.03 N 6.71 N No 0.000 No Precipitation 05/28/2019 11:51 AM 05/28/2019 11:56 AM 0.000 0.000 0.000 0.000 0.000 Not Reported Not Reported
07/12/2019 12:00 PM 76.46 62.06 52.70 90.32 56.66 43.0 Not Reported 3.80 NE 4.47 NE 6.93 NW No 0.000 No Precipitation 05/28/2019 11:51 AM 05/28/2019 11:56 AM 0.000 0.000 0.000 0.000 0.000 Not Reported Not Reported
07/12/2019 12:15 PM 77.72 62.60 52.88 90.32 56.66 42.0 Not Reported 3.13 N 2.91 W 5.14 NW No 0.000 No Precipitation 05/28/2019 11:51 AM 05/28/2019 11:56 AM 0.000 0.000 0.000 0.000 0.000 Not Reported Not Reported
07/12/2019 12:30 PM 78.62 62.96 52.88 90.32 56.66 40.0 Not Reported 2.46 N 2.24 N 6.93 NW No 0.000 No Precipitation 05/28/2019 11:51 AM 05/28/2019 11:56 AM 0.000 0.000 0.000 0.000 0.000 Not Reported Not Reported
07/12/2019 12:45 PM 80.24 63.32 52.70 90.32 56.66 38.0 Not Reported 3.58 NW 1.12 NW 5.59 NE No 0.000 No Precipitation 05/28/2019 11:51 AM 05/28/2019 11:56 AM 0.000 0.000 0.000 0.000 0.000 Not Reported Not Reported
07/12/2019 01:00 PM 80.96 63.68 52.88 90.32 56.66 37.0 Not Reported 1.79 N 4.03 N 6.71 NE No 0.000 No Precipitation 05/28/2019 11:51 AM 05/28/2019 11:56 AM 0.000 0.000 0.000 0.000 0.000 Not Reported Not Reported
07/12/2019 01:15 PM 82.58 64.04 52.52 90.32 56.66 35.0 Not Reported 1.79 E 2.91 E 5.82 N No 0.000 No Precipitation 05/28/2019 11:51 AM 05/28/2019 11:56 AM 0.000 0.000 0.000 0.000 0.000 Not Reported Not Reported
07/12/2019 01:30 PM 82.76 64.22 52.52 90.32 56.66 35.0 Not Reported 3.13 NE 3.36 NE 5.59 NE No 0.000 No Precipitation 05/28/2019 11:51 AM 05/28/2019 11:56 AM 0.000 0.000 0.000 0.000 0.000 Not Reported Not Reported
07/12/2019 01:45 PM 85.46 64.94 51.98 90.32 56.66 31.0 Not Reported 4.47 NE 0.00 SW 5.82 SE No 0.000 No Precipitation 05/28/2019 11:51 AM 05/28/2019 11:56 AM 0.000 0.000 0.000 0.000 0.000 Not Reported Not Reported
07/12/2019 02:00 PM 84.92 64.76 51.98 90.32 56.66 32.0 Not Reported 4.92 N 7.16 N 7.61 N No 0.000 No Precipitation 05/28/2019 11:51 AM 05/28/2019 11:56 AM 0.000 0.000 0.000 0.000 0.000 Not Reported Not Reported
07/12/2019 02:15 PM 86.00 64.94 51.80 90.32 56.66 30.0 Not Reported 2.01 N 0.22 W 8.05 N No 0.000 No Precipitation 05/28/2019 11:51 AM 05/28/2019 11:56 AM 0.000 0.000 0.000 0.000 0.000 Not Reported Not Reported
07/12/2019 02:30 PM 87.44 65.12 51.08 90.32 56.66 28.0 Not Reported 4.25 SW 2.68 NE 7.61 E No 0.000 No Precipitation 05/28/2019 11:51 AM 05/28/2019 11:56 AM 0.000 0.000 0.000 0.000 0.000 Not Reported Not Reported
07/12/2019 02:45 PM 87.98 65.30 50.90 90.32 56.66 27.0 Not Reported 3.58 NW 0.45 NE 8.05 SE No 0.000 No Precipitation 05/28/2019 11:51 AM 05/28/2019 11:56 AM 0.000 0.000 0.000 0.000 0.000 Not Reported Not Reported
07/12/2019 03:00 PM 89.60 65.66 50.36 90.86 56.66 26.0 Not Reported 9.62 S 8.95 S 9.84 S No 0.000 No Precipitation 05/28/2019 11:51 AM 05/28/2019 11:56 AM 0.000 0.000 0.000 0.000 0.000 Not Reported Not Reported
07/12/2019 03:15 PM 88.16 65.30 50.72 90.86 56.66 27.0 Not Reported 5.37 S 3.13 W 8.95 SW No 0.000 No Precipitation 05/28/2019 11:51 AM 05/28/2019 11:56 AM 0.000 0.000 0.000 0.000 0.000 Not Reported Not Reported
07/12/2019 03:30 PM 89.96 66.02 51.08 90.86 56.66 26.0 Not Reported 5.82 SW 8.28 S 8.28 S No 0.000 No Precipitation 05/28/2019 11:51 AM 05/28/2019 11:56 AM 0.000 0.000 0.000 0.000 0.000 Not Reported Not Reported
07/12/2019 03:45 PM 89.78 65.66 50.36 90.86 56.66 25.0 Not Reported 5.37 SW 1.12 W 10.29 E No 0.000 No Precipitation 05/28/2019 11:51 AM 05/28/2019 11:56 AM 0.000 0.000 0.000 0.000 0.000 Not Reported Not Reported
07/12/2019 04:00 PM 90.86 66.02 50.54 92.12 56.66 25.0 Not Reported 6.04 SW 5.82 S 8.50 S No 0.000 No Precipitation 05/28/2019 11:51 AM 05/28/2019 11:56 AM 0.000 0.000 0.000 0.000 0.000 Not Reported Not Reported
07/12/2019 04:15 PM 91.04 65.48 48.74 92.12 56.66 23.0 Not Reported 6.93 S 6.26 SE 7.38 SW No 0.000 No Precipitation 05/28/2019 11:51 AM 05/28/2019 11:56 AM 0.000 0.000 0.000 0.000 0.000 Not Reported Not Reported
07/12/2019 04:30 PM 90.68 65.84 50.18 92.12 56.66 25.0 Not Reported 5.37 S 4.47 SE 7.16 SW No 0.000 No Precipitation 05/28/2019 11:51 AM 05/28/2019 11:56 AM 0.000 0.000 0.000 0.000 0.000 Not Reported Not Reported
07/12/2019 04:45 PM 90.14 65.12 48.74 92.12 56.66 24.0 Not Reported 2.46 NW 2.24 NW 8.28 S No 0.000 No Precipitation 05/28/2019 11:51 AM 05/28/2019 11:56 AM 0.000 0.000 0.000 0.000 0.000 Not Reported Not Reported
07/12/2019 05:00 PM 90.32 65.48 49.28 92.12 56.66 24.0 Not Reported 8.50 S 9.17 S 10.07 S No 0.000 No Precipitation 05/28/2019 11:51 AM 05/28/2019 11:56 AM 0.000 0.000 0.000 0.000 0.000 Not Reported Not Reported
07/12/2019 05:15 PM 91.04 65.66 49.46 92.12 56.66 24.0 Not Reported 8.72 S 8.95 S 10.51 S No 0.000 No Precipitation 05/28/2019 11:51 AM 05/28/2019 11:56 AM 0.000 0.000 0.000 0.000 0.000 Not Reported Not Reported
07/12/2019 05:30 PM 88.34 64.76 49.10 92.12 56.66 25.0 Not Reported 6.93 S 3.13 S 9.40 S No 0.000 No Precipitation 05/28/2019 11:51 AM 05/28/2019 11:56 AM 0.000 0.000 0.000 0.000 0.000 Not Reported Not Reported
07/12/2019 05:45 PM 89.60 65.30 49.64 92.12 56.66 25.0 Not Reported 9.40 S 9.40 S 10.96 S No 0.000 No Precipitation 05/28/2019 11:51 AM 05/28/2019 11:56 AM 0.000 0.000 0.000 0.000 0.000 Not Reported Not Reported
07/12/2019 06:00 PM 88.52 65.48 50.90 92.12 56.66 27.0 Not Reported 7.61 S 6.71 S 10.74 S No 0.000 No Precipitation 05/28/2019 11:51 AM 05/28/2019 11:56 AM 0.000 0.000 0.000 0.000 0.000 Not Reported Not Reported
07/12/2019 06:15 PM 89.60 65.66 50.36 92.12 56.66 26.0 Not Reported 6.26 S 6.26 SE 11.41 S No 0.000 No Precipitation 05/28/2019 11:51 AM 05/28/2019 11:56 AM 0.000 0.000 0.000 0.000 0.000 Not Reported Not Reported
07/12/2019 06:30 PM 88.52 65.84 51.98 92.12 56.66 28.0 Not Reported 5.59 S 4.47 S 8.05 S No 0.000 No Precipitation 05/28/2019 11:51 AM 05/28/2019 11:56 AM 0.000 0.000 0.000 0.000 0.000 Not Reported Not Reported
07/12/2019 06:45 PM 87.98 65.66 51.80 92.12 56.66 29.0 Not Reported 7.38 S 6.71 SW 8.95 S No 0.000 No Precipitation 05/28/2019 11:51 AM 05/28/2019 11:56 AM 0.000 0.000 0.000 0.000 0.000 Not Reported Not Reported
07/12/2019 07:00 PM 87.98 65.84 52.34 92.12 56.66 29.0 Not Reported 2.24 SW 2.01 SW 5.59 SW No 0.000 No Precipitation 05/28/2019 11:51 AM 05/28/2019 11:56 AM 0.000 0.000 0.000 0.000 0.000 Not Reported Not Reported
07/12/2019 07:15 PM 87.98 62.60 43.88 92.12 56.66 21.0 Not Reported 8.95 N 8.05 N 8.28 N No 0.000 No Precipitation 05/28/2019 11:51 AM 05/28/2019 11:56 AM 0.000 0.000 0.000 0.000 0.000 Not Reported Not Reported
07/12/2019 07:30 PM 87.80 62.42 43.52 92.12 56.66 21.0 Not Reported 8.72 NW 7.83 N 11.86 N No 0.000 No Precipitation 05/28/2019 11:51 AM 05/28/2019 11:56 AM 0.000 0.000 0.000 0.000 0.000 Not Reported Not Reported
07/12/2019 07:45 PM 88.16 62.42 43.16 92.12 56.66 20.0 Not Reported 5.82 NW 7.38 NW 11.41 N No 0.000 No Precipitation 05/28/2019 11:51 AM 05/28/2019 11:56 AM 0.000 0.000 0.000 0.000 0.000 Not Reported Not Reported
07/12/2019 08:00 PM 87.80 62.42 43.52 92.12 56.66 21.0 Not Reported 7.61 NE 9.62 NE 9.84 NW No 0.000 No Precipitation 05/28/2019 11:51 AM 05/28/2019 11:56 AM 0.000 0.000 0.000 0.000 0.000 Not Reported Not Reported
07/12/2019 08:15 PM 87.44 62.06 42.80 92.12 56.66 21.0 Not Reported 7.61 NE 11.86 NE 12.75 N No 0.000 No Precipitation 05/28/2019 11:51 AM 05/28/2019 11:56 AM 0.000 0.000 0.000 0.000 0.000 Not Reported Not Reported
07/12/2019 08:30 PM 87.26 61.88 42.44 92.12 56.66 20.0 Not Reported 12.75 N 12.30 N 13.65 N No 0.000 No Precipitation 05/28/2019 11:51 AM 05/28/2019 11:56 AM 0.000 0.000 0.000 0.000 0.000 Not Reported Not Reported
07/12/2019 08:45 PM 86.54 61.52 42.44 92.12 56.66 21.0 Not Reported 11.63 N 12.97 NE 14.32 NE No 0.000 No Precipitation 05/28/2019 11:51 AM 05/28/2019 11:56 AM 0.000 0.000 0.000 0.000 0.000 Not Reported Not Reported
07/12/2019 09:00 PM 86.00 61.52 43.16 92.12 56.66 22.0 Not Reported 8.95 N 8.50 N 14.76 N No 0.000 No Precipitation 05/28/2019 11:51 AM 05/28/2019 11:56 AM 0.000 0.000 0.000 0.000 0.000 Not Reported Not Reported
07/12/2019 09:15 PM 84.38 61.16 43.70 92.12 56.66 23.0 Not Reported 10.29 N 9.17 N 14.09 N No 0.000 No Precipitation 05/28/2019 11:51 AM 05/28/2019 11:56 AM 0.000 0.000 0.000 0.000 0.000 Not Reported Not Reported
07/12/2019 09:30 PM 83.12 62.60 48.56 92.12 56.66 30.0 Not Reported 10.07 N 10.07 N 11.63 N No 0.000 No Precipitation 05/28/2019 11:51 AM 05/28/2019 11:56 AM 0.000 0.000 0.000 0.000 0.000 Not Reported Not Reported
07/12/2019 09:45 PM 81.86 62.60 49.46 92.12 56.66 32.0 Not Reported 5.59 N 6.49 N 10.51 N No 0.000 No Precipitation 05/28/2019 11:51 AM 05/28/2019 11:56 AM 0.000 0.000 0.000 0.000 0.000 Not Reported Not Reported
07/12/2019 10:00 PM 80.24 62.06 49.64 92.12 56.66 34.0 Not Reported 7.16 N 7.16 N 8.28 N No 0.000 No Precipitation 05/28/2019 11:51 AM 05/28/2019 11:56 AM 0.000 0.000 0.000 0.000 0.000 Not Reported Not Reported
07/12/2019 10:15 PM 79.34 61.34 48.92 92.12 56.66 34.0 Not Reported 6.71 N 6.93 NE 9.40 N No 0.000 No Precipitation 05/28/2019 11:51 AM 05/28/2019 11:56 AM 0.000 0.000 0.000 0.000 0.000 Not Reported Not Reported
07/12/2019 10:30 PM 78.44 61.16 49.28 92.12 56.66 35.0 Not Reported 6.04 N 5.82 N 7.61 N No 0.000 No Precipitation 05/28/2019 11:51 AM 05/28/2019 11:56 AM 0.000 0.000 0.000 0.000 0.000 Not Reported Not Reported
07/12/2019 10:45 PM 77.54 60.98 49.64 92.12 56.66 37.0 Not Reported 5.59 N 4.92 N 8.95 N No 0.000 No Precipitation 05/28/2019 11:51 AM 05/28/2019 11:56 AM 0.000 0.000 0.000 0.000 0.000 Not Reported Not Reported
07/12/2019 11:00 PM 77.18 60.98 50.00 92.12 56.66 38.0 Not Reported 2.24 N 2.24 NW 3.58 NW No 0.000 No Precipitation 05/28/2019 11:51 AM 05/28/2019 11:56 AM 0.000 0.000 0.000 0.000 0.000 Not Reported Not Reported
07/12/2019 11:15 PM 76.46 60.80 49.82 92.12 56.66 39.0 Not Reported 4.47 N 5.14 N 4.92 N No 0.000 No Precipitation 05/28/2019 11:51 AM 05/28/2019 11:56 AM 0.000 0.000 0.000 0.000 0.000 Not Reported Not Reported
07/12/2019 11:30 PM 75.74 60.62 50.00 92.12 56.66 40.0 Not Reported 3.36 NW 3.36 NW 3.80 N No 0.000 No Precipitation 05/28/2019 11:51 AM 05/28/2019 11:56 AM 0.000 0.000 0.000 0.000 0.000 Not Reported Not Reported
07/12/2019 11:45 PM 74.66 60.26 50.00 92.12 56.66 41.0 Not Reported 4.25 N 5.82 N 4.92 N No 0.000 No Precipitation 05/28/2019 11:51 AM 05/28/2019 11:56 AM 0.000 0.000 0.000 0.000 0.000 Not Reported Not Reported